^^
Datos históricos de la estación: Murcia-Puente Tocinos
Diario Informe para Septiembre 13, 2019 Unidades:  Ingés    Métrico   Ambas
Diario Semanal Mensual Anual
  Máxima: Mínima: Promedio:
Temperatura: 94.1 °F 78.1 °F 84.7 °F
Punto de rocio: 70.9 °F 52 °F 59.9 °F
Humedad: 77% 32% 44%
Velocidad viento: 11.4mph 0mph 6.1mph
Racha viento: 22mph - -
Viento- - Este
Presión: 29.9 in 29.8 in -
Precipitación: 0 in    
 
 
Tabla de datos para Septiembre 13, 2019
Hora Temperatura Punto de rocio Presión Viento Velocidad viento Racha viento Humedad Intensidad lluvia(por hora) Nubes
00:04 81.7 °F 57 °F 29.9 in NE 2.9 mph 6 mph 43% 0 in
00:09 81.7 °F 57 °F 29.9 in ENE 2.7 mph 6 mph 43% 0 in
00:14 81.7 °F 57 °F 29.9 in NO 2.4 mph 5 mph 43% 0 in
00:19 81.7 °F 57 °F 29.9 in NO 2.1 mph 3.6 mph 43% 0 in
00:24 81.7 °F 57 °F 29.9 in NNE 1.4 mph 4.6 mph 43% 0 in
00:29 81.5 °F 57 °F 29.9 in NNE 1.8 mph 5.9 mph 43.3% 0 in
00:34 81.1 °F 57 °F 29.9 in ENE 2.9 mph 6 mph 43.5% 0 in
00:39 81.1 °F 56.5 °F 29.9 in NE 2.7 mph 6 mph 43% 0 in
00:44 81.1 °F 57 °F 29.9 in NNE 2.4 mph 5.8 mph 43.8% 0 in
00:49 81.1 °F 57.7 °F 29.9 in NE 2.5 mph 6 mph 45% 0 in
00:54 81 °F 57.6 °F 29.9 in NE 2.9 mph 5 mph 45% 0 in
00:59 81 °F 58.1 °F 29.9 in NE 2 mph 2 mph 45.7% 0 in
01:04 81.1 °F 58.3 °F 29.9 in Calm   2.9 mph 46% 0 in
01:09 81.1 °F 58.5 °F 29.9 in NNE 0.4 mph 3.5 mph 46% 0 in
01:14 81.1 °F 57.9 °F 29.9 in ESE 1.4 mph 5.2 mph 45.3% 0 in
01:19 81.3 °F 58.1 °F 29.9 in SSE 1.6 mph 5.2 mph 45.3% 0 in
01:24 81.3 °F 57.9 °F 29.9 in Sur 2 mph 6 mph 45% 0 in
01:29 81.3 °F 57.6 °F 29.9 in Sur 2.3 mph 6 mph 44.3% 0 in
01:34 81.5 °F 57.4 °F 29.9 in SSO 2.9 mph 5 mph 44% 0 in
01:39 81.7 °F 57.6 °F 29.9 in Oeste 2.6 mph 4.7 mph 44% 0 in
01:44 81.7 °F 57.6 °F 29.9 in SO 2 mph 5.9 mph 44% 0 in
01:49 81.7 °F 57.2 °F 29.9 in SSO 2.3 mph 6 mph 43.5% 0 in
01:54 81.7 °F 57.2 °F 29.9 in NO 2.9 mph 5 mph 43.1% 0 in
01:59 81.9 °F 57.2 °F 29.9 in SSE 2.7 mph 10 mph 43% 0 in
02:04 82 °F 57 °F 29.9 in ESE 2.4 mph 10.4 mph 42.5% 0 in
02:09 82 °F 56.5 °F 29.9 in SE 2.9 mph 10 mph 41.9% 0 in
02:14 81.7 °F 55.8 °F 29.9 in SSE 4 mph 8.1 mph 40.9% 0 in
02:19 81.7 °F 54.9 °F 29.9 in SSE 4.3 mph 8.1 mph 39.7% 0 in
02:24 81.7 °F 54 °F 29.9 in SSE 5.2 mph 7 mph 38.5% 0 in
02:29 81.7 °F 53.1 °F 29.9 in SE 4.7 mph 6.2 mph 37.1% 0 in
02:34 81.7 °F 52.9 °F 29.9 in SE 3.6 mph 6 mph 36.9% 0 in
02:39 81.9 °F 52.7 °F 29.9 in SE 3.2 mph 6.2 mph 36.6% 0 in
02:44 81.7 °F 52.5 °F 29.9 in SSE 2.4 mph 6.2 mph 36.6% 0 in
02:49 81.7 °F 52.7 °F 29.9 in SSE 2.6 mph 6 mph 36.8% 0 in
02:54 81.7 °F 52.9 °F 29.9 in SSE 3.1 mph 5 mph 37% 0 in
02:59 81.7 °F 52.3 °F 29.9 in ENE 2.5 mph 4.6 mph 36.3% 0 in
03:04 81.7 °F 52.3 °F 29.9 in NE 1.4 mph 5 mph 36.3% 0 in
03:09 81.7 °F 52.7 °F 29.9 in North 1.5 mph 4.7 mph 36.7% 0 in
03:14 81.3 °F 52.7 °F 29.9 in OSO 1.8 mph 5.8 mph 37.1% 0 in
03:19 81.3 °F 52 °F 29.9 in SO 2.4 mph 6.9 mph 36.3% 0 in
03:24 81.5 °F 52.2 °F 29.9 in OSO 3.6 mph 7 mph 36.2% 0 in
03:29 81.9 °F 52.2 °F 29.9 in Oeste 3.4 mph 6 mph 36% 0 in
03:34 81.9 °F 53.2 °F 29.9 in North 3.1 mph 5.8 mph 37.4% 0 in
03:39 81.7 °F 53.6 °F 29.9 in NE 2.9 mph 6 mph 38.2% 0 in
03:44 81.3 °F 54.5 °F 29.9 in NNO 2.4 mph 5 mph 39.6% 0 in
03:49 81.1 °F 54 °F 29.9 in NNO 2.2 mph 5 mph 39.3% 0 in
03:54 81 °F 53.4 °F 29.9 in NE 1.8 mph 5.4 mph 38.7% 0 in
03:59 80.8 °F 54.1 °F 29.9 in Este 2.2 mph 7.6 mph 39.9% 0 in
04:04 80.4 °F 54.5 °F 29.9 in SE 3.1 mph 8.1 mph 41% 0 in
04:09 80.1 °F 54.1 °F 29.9 in ONO 3.4 mph 8 mph 40.9% 0 in
04:14 79.9 °F 54.3 °F 29.9 in NNE 4 mph 8.1 mph 41.4% 0 in
04:19 79.5 °F 54.9 °F 29.9 in NO 4.2 mph 8.5 mph 42.7% 0 in
04:24 79.2 °F 55 °F 29.8 in Oeste 4.7 mph 9 mph 43.4% 0 in
04:29 79.2 °F 55 °F 29.8 in SE 4.4 mph 9 mph 43.4% 0 in
04:34 79.2 °F 54.9 °F 29.8 in SE 3.6 mph 5 mph 43% 0 in
04:39 79.3 °F 55 °F 29.8 in ENE 3.2 mph 5.9 mph 43% 0 in
04:44 79.3 °F 55 °F 29.8 in NE 2.4 mph 8.5 mph 43.1% 0 in
04:49 79.2 °F 55.4 °F 29.8 in NNE 2.9 mph 9 mph 43.9% 0 in
04:54 79.2 °F 55.2 °F 29.8 in SE 4 mph 11.8 mph 43.6% 0 in
04:59 79.2 °F 55.4 °F 29.8 in Este 4.4 mph 12 mph 44% 0 in
05:04 79 °F 55.2 °F 29.8 in NNE 5.2 mph 8.5 mph 44% 0 in
05:09 78.6 °F 55.4 °F 29.8 in NO 5.2 mph 9 mph 44.7% 0 in
05:14 78.4 °F 55.2 °F 29.8 in North 5.2 mph 8 mph 45% 0 in
05:19 78.4 °F 55.2 °F 29.8 in Sur 4.6 mph 8.1 mph 45% 0 in
05:24 78.6 °F 55.2 °F 29.8 in SE 3.1 mph 8 mph 44.4% 0 in
05:29 79 °F 55.2 °F 29.8 in SO 3.5 mph 7 mph 44% 0 in
05:34 79.2 °F 54.7 °F 29.8 in SSO 4.3 mph 7 mph 43.1% 0 in
05:39 79.2 °F 54.7 °F 29.8 in SSE 3.9 mph 7 mph 43% 0 in
05:44 79.3 °F 54.9 °F 29.8 in SO 2.9 mph 4.7 mph 43% 0 in
05:49 79.3 °F 54.5 °F 29.9 in SO 2.9 mph 5.8 mph 42.3% 0 in
05:54 79.5 °F 54.5 °F 29.9 in OSO 2.9 mph 6 mph 42% 0 in
05:59 79.7 °F 54.7 °F 29.9 in ONO 3 mph 6 mph 42% 0 in
06:04 79.7 °F 54.1 °F 29.9 in ONO 3.1 mph 5 mph 41.4% 0 in
06:09 79.7 °F 54 °F 29.9 in ONO 3 mph 6.9 mph 41% 0 in
06:14 79.5 °F 53.8 °F 29.9 in Oeste 2.9 mph 8.1 mph 40.9% 0 in
06:19 79.3 °F 52.9 °F 29.9 in SO 3.3 mph 8 mph 40% 0 in
06:24 79.3 °F 52.5 °F 29.9 in SSO 4.3 mph 9.2 mph 39.2% 0 in
06:29 79.9 °F 52 °F 29.9 in Oeste 4.4 mph 9 mph 38.1% 0 in
06:34 80.1 °F 52.2 °F 29.9 in North 4.7 mph 6.9 mph 38% 0 in
06:39 80.1 °F 52.7 °F 29.9 in ONO 4.5 mph 7 mph 38.9% 0 in
06:44 79.9 °F 53.1 °F 29.9 in NO 4 mph 6 mph 39.7% 0 in
06:49 79.5 °F 53.2 °F 29.9 in NNO 3.4 mph 6 mph 40.2% 0 in
06:54 79.5 °F 53.1 °F 29.9 in SE 2 mph 5.8 mph 40% 0 in
06:59 79.5 °F 52.5 °F 29.9 in SE 2.7 mph 6.9 mph 39.2% 0 in
07:04 79.5 °F 53.1 °F 29.9 in ENE 4 mph 7 mph 39.9% 0 in
07:09 79.3 °F 53.1 °F 29.9 in SE 3.7 mph 6 mph 40.3% 0 in
07:14 79 °F 53.8 °F 29.9 in SSO 3.1 mph 6 mph 41.8% 0 in
07:19 78.8 °F 55 °F 29.9 in Sur 2.9 mph 6.2 mph 43.9% 0 in
07:24 78.4 °F 54.7 °F 29.9 in SSE 2.4 mph 9.7 mph 43.8% 0 in
07:29 78.3 °F 54.3 °F 29.9 in SE 3.6 mph 10 mph 43.7% 0 in
07:34 78.1 °F 52.7 °F 29.9 in SSE 6.4 mph 10 mph 41.3% 0 in
07:39 78.3 °F 53.1 °F 29.9 in Sur 5.7 mph 6 mph 41.6% 0 in
07:44 78.4 °F 53.4 °F 29.9 in SE 4 mph 6.9 mph 41.8% 0 in
07:49 78.6 °F 53.1 °F 29.9 in Este 3.9 mph 7 mph 41.2% 0 in
07:54 78.4 °F 52.9 °F 29.9 in NE 3.6 mph 6 mph 41.1% 0 in
07:59 78.4 °F 52.7 °F 29.9 in SE 3.6 mph 6.9 mph 40.8% 0 in
08:04 78.4 °F 52.7 °F 29.9 in SE 3.6 mph 8.1 mph 40.8% 0 in
08:09 78.4 °F 52.2 °F 29.9 in ESE 3.9 mph 8.1 mph 39.9% 0 in
08:14 79 °F 52.5 °F 29.9 in ESE 4.7 mph 8 mph 40% 0 in
08:19 79.2 °F 54.3 °F 29.9 in NNO 4 mph 7.4 mph 42.3% 0 in
08:24 78.8 °F 54.9 °F 29.9 in ONO 2.4 mph 7 mph 43.6% 0 in
08:29 78.6 °F 55.2 °F 29.9 in NO 2.6 mph 7 mph 44.5% 0 in
08:34 78.6 °F 54.9 °F 29.9 in NO 3.1 mph 3 mph 44% 0 in
08:39 79 °F 54.5 °F 29.9 in NO 2.5 mph 4.6 mph 43% 0 in
08:44 79.2 °F 54.5 °F 29.9 in NNO 1.4 mph 5 mph 42.8% 0 in
08:49 79.3 °F 54.5 °F 29.9 in NE 1.5 mph 5 mph 42.2% 0 in
08:54 79.5 °F 55.6 °F 29.9 in NNO 1.8 mph 8.1 mph 43.8% 0 in
08:59 79.3 °F 55.2 °F 29.9 in ONO 2.8 mph 8.1 mph 43.5% 0 in
09:04 79.3 °F 54.9 °F 29.9 in NO 4.7 mph 8 mph 42.8% 0 in
09:09 79.9 °F 55 °F 29.9 in NNO 4.2 mph 6 mph 42.6% 0 in
09:14 80.4 °F 54.9 °F 29.9 in NNE 3.1 mph 7.4 mph 41.4% 0 in
09:19 80.8 °F 55.4 °F 29.9 in North 3.4 mph 7 mph 41.9% 0 in
09:24 81 °F 55 °F 29.9 in NO 4 mph 7 mph 41.1% 0 in
09:29 81 °F 54.9 °F 29.9 in North 3.4 mph 7 mph 40.7% 0 in
09:34 81.1 °F 54.5 °F 29.9 in NE 2 mph 6 mph 40% 0 in
09:39 81.5 °F 54.5 °F 29.9 in Oeste 2.3 mph 6 mph 39.4% 0 in
09:44 81.9 °F 54.1 °F 29.9 in Sur 2.9 mph 5 mph 38.6% 0 in
09:49 82.2 °F 54.3 °F 29.9 in NE 3.1 mph 10.4 mph 38.3% 0 in
09:54 82.2 °F 55.2 °F 29.9 in NNE 3.6 mph 10.4 mph 39.5% 0 in
09:59 82 °F 55.8 °F 29.9 in NO 4.1 mph 9 mph 40.7% 0 in
10:04 82 °F 55.8 °F 29.9 in NNE 5.2 mph 7 mph 40.7% 0 in
10:09 82.2 °F 56.1 °F 29.9 in NE 4.7 mph 6 mph 41% 0 in
10:14 82.8 °F 55.9 °F 29.9 in North 3.6 mph 6 mph 39.9% 0 in
10:19 83.1 °F 55.9 °F 29.9 in NNE 3.4 mph 6.9 mph 39.4% 0 in
10:24 83.8 °F 54.7 °F 29.9 in NE 2.9 mph 9.7 mph 37% 0 in
10:29 84.6 °F 53.2 °F 29.9 in NNE 3.8 mph 10 mph 34.3% 0 in
10:34 84.9 °F 52.7 °F 29.9 in NNE 5.9 mph 10 mph 33.3% 0 in
10:39 85.3 °F 53.4 °F 29.9 in NNE 5.7 mph 10 mph 33.7% 0 in
10:44 85.6 °F 54 °F 29.9 in NE 5.2 mph 7.4 mph 33.9% 0 in
10:49 86 °F 54.5 °F 29.9 in NE 5.2 mph 9.7 mph 34% 0 in
10:54 86.4 °F 54.7 °F 29.9 in NE 5.2 mph 10.4 mph 34% 0 in
10:59 86.5 °F 54.9 °F 29.9 in NE 5.6 mph 10.4 mph 34.1% 0 in
11:04 86.5 °F 55.4 °F 29.9 in NE 6.4 mph 11 mph 34.6% 0 in
11:09 86.9 °F 55.9 °F 29.9 in NNE 6.4 mph 13 mph 35% 0 in
11:14 87.3 °F 56.3 °F 29.9 in NE 6.4 mph 13 mph 34.9% 0 in
11:19 87.6 °F 55.9 °F 29.9 in NE 6.3 mph 10.4 mph 34.2% 0 in
11:24 88.2 °F 55.6 °F 29.9 in NE 6.2 mph 10.7 mph 33.1% 0 in
11:29 88.3 °F 56.3 °F 29.9 in NNE 6.2 mph 12.7 mph 34% 0 in
11:34 88.5 °F 56.8 °F 29.9 in NNE 6.2 mph 15.2 mph 34.4% 0 in
11:39 88.7 °F 57.6 °F 29.9 in NE 6.6 mph 15.9 mph 35% 0 in
11:44 88.9 °F 57.9 °F 29.9 in NNE 7.6 mph 16.1 mph 35.2% 0 in
11:49 88.9 °F 57.7 °F 29.9 in NE 7.8 mph 14 mph 35% 0 in
11:54 88.7 °F 58.1 °F 29.9 in NNE 8.1 mph 14 mph 35.7% 0 in
11:59 88.5 °F 58.8 °F 29.9 in NNE 7.5 mph 13 mph 36.8% 0 in
12:04 88.5 °F 59.2 °F 29.9 in NE 6.4 mph 13 mph 37.3% 0 in
12:09 88.7 °F 59.7 °F 29.9 in NE 6.8 mph 13.8 mph 38% 0 in
12:14 88.5 °F 59.9 °F 29.9 in NNE 7.6 mph 14 mph 38.3% 0 in
12:19 88.2 °F 60.1 °F 29.9 in NNE 8.1 mph 14 mph 39% 0 in
12:24 88 °F 60.6 °F 29.9 in NNE 9.2 mph 13.8 mph 40% 0 in
12:29 88.2 °F 61 °F 29.9 in NE 8.9 mph 14 mph 40.5% 0 in
12:34 88.2 °F 61.2 °F 29.9 in NE 8.1 mph 13.8 mph 40.4% 0 in
12:39 88.2 °F 61.5 °F 29.9 in NE 8.2 mph 16.1 mph 41% 0 in
12:44 88.2 °F 62.2 °F 29.9 in NE 8.5 mph 16 mph 42% 0 in
12:49 88.2 °F 62.4 °F 29.9 in NNE 8.7 mph 15.2 mph 42.2% 0 in
12:54 88.2 °F 62.8 °F 29.9 in NNE 9.2 mph 15 mph 43% 0 in
12:59 88.3 °F 62.6 °F 29.9 in NE 8.9 mph 14 mph 42.5% 0 in
13:04 88.9 °F 63 °F 29.9 in NE 8.5 mph 14 mph 42.3% 0 in
13:09 89.1 °F 63 °F 29.9 in NE 8.5 mph 15.2 mph 42.1% 0 in
13:14 88.9 °F 63.3 °F 29.9 in NE 8.5 mph 15 mph 42.6% 0 in
13:19 89.2 °F 63.7 °F 29.9 in NE 8.4 mph 15.2 mph 42.9% 0 in
13:24 89.2 °F 63.9 °F 29.9 in NNE 8.1 mph 16.8 mph 43% 0 in
13:29 89.4 °F 63.9 °F 29.9 in NE 8.4 mph 17 mph 43% 0 in
13:34 89.6 °F 64.4 °F 29.9 in NNE 9.2 mph 16.1 mph 43.4% 0 in
13:39 89.8 °F 64.9 °F 29.9 in NE 9.1 mph 16 mph 44% 0 in
13:44 89.6 °F 64.9 °F 29.9 in NNE 8.7 mph 16.8 mph 44% 0 in
13:49 90.1 °F 65.3 °F 29.9 in NNE 8.4 mph 17 mph 44.2% 0 in
13:54 90.1 °F 65.1 °F 29.9 in NNE 7.6 mph 18 mph 43.7% 0 in
13:59 90 °F 65.1 °F 29.9 in NE 8.3 mph 18 mph 44% 0 in
14:04 90.3 °F 65.5 °F 29.9 in NNE 9.7 mph 13.5 mph 44.2% 0 in
14:09 90.7 °F 65.5 °F 29.9 in NNE 9 mph 14 mph 43.5% 0 in
14:14 90.9 °F 65.8 °F 29.9 in North 7.4 mph 14 mph 43.8% 0 in
14:19 91.2 °F 65.8 °F 29.9 in NNE 7.3 mph 14.7 mph 43.3% 0 in
14:24 91.2 °F 65.7 °F 29.9 in NE 6.9 mph 15.2 mph 43% 0 in
14:29 91.4 °F 65.7 °F 29.9 in NE 7.5 mph 16.1 mph 42.8% 0 in
14:34 91.8 °F 65.5 °F 29.9 in NNE 8.7 mph 16 mph 42.2% 0 in
14:39 91.6 °F 65.5 °F 29.9 in NE 8.5 mph 17.5 mph 42.3% 0 in
14:44 91.6 °F 65.5 °F 29.9 in NNE 8.1 mph 17.3 mph 42.4% 0 in
14:49 91.8 °F 65.8 °F 29.9 in NE 8.4 mph 17 mph 42.5% 0 in
14:54 91.8 °F 65.5 °F 29.9 in NE 9.2 mph 15.2 mph 42% 0 in
14:59 91.8 °F 65.3 °F 29.9 in NE 9.4 mph 19.7 mph 41.8% 0 in
15:04 91.8 °F 64.9 °F 29.9 in NE 10 mph 20 mph 41.3% 0 in
15:09 91.8 °F 65.3 °F 29.8 in NE 9.8 mph 18 mph 41.8% 0 in
15:14 92.5 °F 65.3 °F 29.8 in NE 9.2 mph 16 mph 40.9% 0 in
15:19 92.7 °F 64.9 °F 29.8 in NE 9.1 mph 16.1 mph 40.2% 0 in
15:24 92.5 °F 64.6 °F 29.8 in NE 8.7 mph 21.9 mph 40% 0 in
15:29 92.7 °F 64.8 °F 29.8 in NNE 9.3 mph 22 mph 40.1% 0 in
15:34 92.7 °F 64.9 °F 29.8 in NE 10.7 mph 16.1 mph 40% 0 in
15:39 92.8 °F 64.6 °F 29.8 in NE 10.4 mph 18.5 mph 39.4% 0 in
15:44 93.4 °F 64.9 °F 29.8 in NE 9.7 mph 19 mph 39.3% 0 in
15:49 93.6 °F 64.2 °F 29.8 in NE 9.2 mph 13.8 mph 38.1% 0 in
15:54 93.6 °F 64.8 °F 29.8 in NE 8.1 mph 17.3 mph 38.8% 0 in
15:59 93.7 °F 64.6 °F 29.8 in NE 8.6 mph 18.4 mph 38.4% 0 in
16:04 93.9 °F 63.9 °F 29.8 in NE 9.7 mph 18 mph 37.3% 0 in
16:09 93.9 °F 65.5 °F 29.8 in NE 9.8 mph 17.3 mph 39.4% 0 in
16:14 93.9 °F 64.8 °F 29.8 in NE 10.2 mph 18.5 mph 38.2% 0 in
16:19 93.7 °F 66 °F 29.8 in NE 10.2 mph 19 mph 40.4% 0 in
16:24 93.7 °F 64.2 °F 29.8 in NE 10.2 mph 15 mph 37.9% 0 in
16:29 94.1 °F 65.5 °F 29.8 in NE 9.6 mph 18.4 mph 39.3% 0 in
16:34 93.6 °F 66.2 °F 29.8 in NNE 8.5 mph 19.6 mph 40.9% 0 in
16:39 93 °F 65.7 °F 29.8 in NNE 9.4 mph 21.5 mph 40.9% 0 in
16:44 92.7 °F 65.5 °F 29.8 in NNE 11.4 mph 22 mph 41% 0 in
16:49 92.8 °F 65.3 °F 29.8 in NE 11.1 mph 19 mph 40.7% 0 in
16:54 92.8 °F 65.1 °F 29.8 in NE 10.2 mph 19 mph 40.2% 0 in
16:59 93 °F 64.9 °F 29.8 in NE 10.6 mph 17.8 mph 39.9% 0 in
17:04 93 °F 64.4 °F 29.8 in NE 11.2 mph 18.4 mph 39% 0 in
17:09 93.4 °F 64.9 °F 29.8 in NE 10.6 mph 18.4 mph 39.5% 0 in
17:14 93.2 °F 65.3 °F 29.8 in NE 9.2 mph 21.3 mph 40% 0 in
17:19 92.7 °F 66 °F 29.8 in NE 9.7 mph 21 mph 41.6% 0 in
17:24 92.7 °F 66 °F 29.8 in NE 10.7 mph 18.5 mph 41.7% 0 in
17:29 92.1 °F 65.7 °F 29.8 in NE 10.6 mph 19 mph 41.9% 0 in
17:34 92.1 °F 65.7 °F 29.8 in NE 10.2 mph 18.4 mph 42.1% 0 in
17:39 91.9 °F 65.8 °F 29.8 in NE 10.2 mph 18 mph 42.4% 0 in
17:44 91.8 °F 63.9 °F 29.8 in NE 10.2 mph 16.3 mph 39.7% 0 in
17:49 91.8 °F 64.6 °F 29.8 in NE 10.4 mph 17.5 mph 40.9% 0 in
17:54 91.8 °F 65.1 °F 29.8 in NE 10.7 mph 18.5 mph 41.6% 0 in
17:59 91.2 °F 64.4 °F 29.8 in NE 10.9 mph 19.6 mph 41.3% 0 in
18:04 91.6 °F 64.2 °F 29.8 in NE 11.4 mph 20 mph 40.5% 0 in
18:09 91.6 °F 63.7 °F 29.8 in NE 11.1 mph 18.4 mph 39.7% 0 in
18:14 91.4 °F 62.2 °F 29.8 in NE 10.2 mph 18.4 mph 38.1% 0 in
18:19 91.4 °F 61 °F 29.8 in NE 10.2 mph 18 mph 36.4% 0 in
18:24 91.2 °F 60.6 °F 29.8 in NE 10.2 mph 17.5 mph 36.2% 0 in
18:29 91.2 °F 60.4 °F 29.8 in NE 10.6 mph 18.5 mph 36% 0 in
18:34 91 °F 59.5 °F 29.8 in NE 11.4 mph 19 mph 35% 0 in
18:39 91 °F 58.8 °F 29.8 in NE 11.2 mph 18 mph 34.1% 0 in
18:44 91.2 °F 60.1 °F 29.8 in NE 10.7 mph 16.1 mph 35.5% 0 in
18:49 91.4 °F 59.9 °F 29.8 in NE 10 mph 16 mph 35% 0 in
18:54 91.4 °F 59 °F 29.8 in NE 8.5 mph 15.2 mph 33.9% 0 in
18:59 91.2 °F 58.6 °F 29.8 in NE 8.7 mph 16.3 mph 33.6% 0 in
19:04 91.2 °F 57.2 °F 29.8 in NE 9.2 mph 16 mph 32% 0 in
19:09 91.2 °F 58.3 °F 29.8 in NE 9.2 mph 15 mph 33.2% 0 in
19:14 91 °F 59.4 °F 29.8 in NE 9.2 mph 14 mph 34.7% 0 in
19:19 91 °F 59.9 °F 29.8 in NE 8.8 mph 13 mph 35.3% 0 in
19:24 91 °F 61 °F 29.8 in NE 8.1 mph 15 mph 36.8% 0 in
19:29 90.7 °F 60.8 °F 29.8 in NE 8.2 mph 15 mph 37% 0 in
19:34 90.3 °F 60.8 °F 29.8 in NE 8.5 mph 15 mph 37.3% 0 in
19:39 90.1 °F 60.6 °F 29.8 in NE 8.6 mph 14 mph 37.3% 0 in
19:44 89.8 °F 60.3 °F 29.8 in NE 8.7 mph 15 mph 37.3% 0 in
19:49 89.6 °F 60.1 °F 29.8 in NE 8.9 mph 15 mph 37.4% 0 in
19:54 89.4 °F 60.4 °F 29.8 in NE 9.2 mph 15 mph 38% 0 in
19:59 89.2 °F 60.8 °F 29.8 in NE 8.4 mph 14 mph 38.6% 0 in
20:04 89.1 °F 61.3 °F 29.8 in NE 6.9 mph 15.2 mph 39.9% 0 in
20:09 88.5 °F 61.7 °F 29.8 in NE 7.5 mph 15 mph 40.9% 0 in
20:14 88.3 °F 62.1 °F 29.8 in NE 8.7 mph 15.2 mph 41.5% 0 in
20:19 88.2 °F 62.6 °F 29.8 in NE 8.5 mph 15 mph 42.5% 0 in
20:24 88.2 °F 63 °F 29.8 in NE 8.1 mph 13 mph 43.5% 0 in
20:29 88 °F 63.3 °F 29.8 in NE 7.9 mph 13.8 mph 44% 0 in
20:34 87.4 °F 63 °F 29.8 in NE 7.4 mph 14 mph 44% 0 in
20:39 87.3 °F 62.8 °F 29.8 in NE 7.1 mph 13 mph 44% 0 in
20:44 87.1 °F 63.3 °F 29.8 in NE 6.4 mph 12.3 mph 45.4% 0 in
20:49 86.4 °F 64.4 °F 29.8 in NE 6.7 mph 15 mph 47.9% 0 in
20:54 85.6 °F 65.3 °F 29.8 in NE 7.4 mph 15.2 mph 50.7% 0 in
20:59 85.1 °F 65.7 °F 29.8 in NE 7.6 mph 15 mph 52.2% 0 in
21:04 84.7 °F 65.8 °F 29.8 in NE 8.1 mph 17.3 mph 53.2% 0 in
21:09 84.2 °F 65.8 °F 29.8 in NE 8.7 mph 17 mph 54.3% 0 in
21:14 83.8 °F 66.4 °F 29.8 in NNE 10 mph 14 mph 55.7% 0 in
21:19 83.3 °F 66.6 °F 29.8 in NE 9.8 mph 15.2 mph 57.1% 0 in
21:24 82.8 °F 66.7 °F 29.8 in NE 9.2 mph 17.3 mph 58.5% 0 in
21:29 82.4 °F 66.9 °F 29.8 in NE 9.4 mph 17 mph 59.5% 0 in
21:34 82 °F 67.6 °F 29.8 in NE 10 mph 15 mph 61.5% 0 in
21:39 81.9 °F 68 °F 29.8 in NE 9.6 mph 15 mph 62.7% 0 in
21:44 81.7 °F 68.2 °F 29.8 in NE 8.7 mph 16.1 mph 63.5% 0 in
21:49 81.3 °F 68.4 °F 29.8 in NE 8.6 mph 16.1 mph 65% 0 in
21:54 81.1 °F 68.7 °F 29.8 in NE 8.5 mph 15 mph 66% 0 in
21:59 81.1 °F 69.1 °F 29.8 in NE 8.2 mph 13 mph 67.1% 0 in
22:04 81 °F 69.3 °F 29.8 in NE 7.6 mph 12 mph 68% 0 in
22:09 80.6 °F 69.4 °F 29.8 in NE 7.8 mph 16.1 mph 68.6% 0 in
22:14 80.4 °F 69.4 °F 29.8 in NE 8.1 mph 16 mph 69.3% 0 in
22:19 80.2 °F 69.6 °F 29.8 in NE 8.1 mph 12.7 mph 70.2% 0 in
22:24 80.1 °F 69.8 °F 29.8 in NE 8.1 mph 13 mph 71% 0 in
22:29 80.1 °F 70.2 °F 29.8 in NE 7.7 mph 13 mph 71.9% 0 in
22:34 79.9 °F 70 °F 29.8 in NE 6.9 mph 13 mph 72% 0 in
22:39 79.9 °F 70.2 °F 29.8 in ENE 6.6 mph 10.7 mph 72.2% 0 in
22:44 79.7 °F 70.3 °F 29.8 in NE 5.9 mph 11 mph 73% 0 in
22:49 79.5 °F 70.2 °F 29.8 in NE 6 mph 10.4 mph 73% 0 in
22:54 79.5 °F 70.3 °F 29.8 in NE 6.2 mph 11.8 mph 73.9% 0 in
22:59 79.3 °F 70.3 °F 29.8 in NE 6.5 mph 12 mph 74% 0 in
23:04 79.3 °F 70.7 °F 29.8 in NE 6.9 mph 12 mph 74.9% 0 in
23:09 79.2 °F 70.5 °F 29.8 in NE 7 mph 13.8 mph 75% 0 in
23:14 79.2 °F 70.5 °F 29.8 in NE 7.4 mph 14 mph 75% 0 in
23:19 79.2 °F 70.9 °F 29.8 in NE 7.1 mph 12 mph 75.8% 0 in
23:24 79.2 °F 70.9 °F 29.8 in NE 6.4 mph 10.4 mph 76% 0 in
23:29 79.2 °F 70.9 °F 29.8 in NE 6 mph 10 mph 76% 0 in
23:34 79 °F 70.9 °F 29.8 in NE 5.2 mph 10.4 mph 76% 0 in
23:39 79 °F 70.9 °F 29.8 in NE 5.3 mph 10 mph 76% 0 in
23:44 79 °F 70.7 °F 29.8 in NE 5.4 mph 10 mph 76% 0 in
23:49 78.8 °F 70.5 °F 29.8 in NE 5.7 mph 9.2 mph 76% 0 in
23:54 78.6 °F 70.7 °F 29.8 in NE 6.2 mph 9.7 mph 76.5% 0 in
23:59 78.6 °F 70.9 °F 29.8 in NE 5.9 mph 10.2 mph 77% 0 in
Murcia-Puente Tocinos, España
Compliments of Weather Underground - 2.75 mb

La estación de MeteoMurcia.com, publica sus datos en los siguientes proyectos:

Weather Underground PWS IMURCIAP2 Meteoclimatic www.awekas.at

W3Counter
Web Analytics